Time;durP1;ratioP1;P1;durP2;ratioP2;P2;SDS_P1;SDS_P2;PMS_P1;PMS_P2;Temp;Humidity;BMP_temperature;BMP_pressure;BME280_temperature;BME280_humidity;BME280_pressure;Samples;Min_cycle;Max_cycle;Signal;HPM_P1;HPM_P2
2022/01/15 00:00:37;;;;;;;100.85;37.30;;;;;;;;;;5009491;28;88795;-71
2022/01/15 00:03:04;;;;;;;103.78;38.28;;;;;;;;;;5010405;28;88999;-71
2022/01/15 00:05:31;;;;;;;85.75;37.00;;;;;;;;;;5012816;28;88982;-71
2022/01/15 00:08:01;;;;;;;97.22;36.47;;;;;;;;;;5010813;28;89427;-71
2022/01/15 00:10:28;;;;;;;103.00;37.85;;;;;;;;;;5013449;28;89078;-71
2022/01/15 00:12:56;;;;;;;81.82;35.13;;;;;;;;;;5011227;28;89095;-71
2022/01/15 00:15:39;;;;;;;96.72;36.03;;;;;;;;;;5008973;28;89453;-71
2022/01/15 00:18:11;;;;;;;107.10;34.40;;;;;;;;;;5013095;28;91122;-71
2022/01/15 00:20:37;;;;;;;86.85;34.85;;;;;;;;;;5001196;28;89441;-71
2022/01/15 00:23:03;;;;;;;107.45;34.28;;;;;;;;;;5013561;28;90049;-71
2022/01/15 00:25:30;;;;;;;129.02;34.63;;;;;;;;;;5003841;28;90109;-71
2022/01/15 00:27:58;;;;;;;85.18;32.60;;;;;;;;;;5007595;28;89119;-71
2022/01/15 00:30:24;;;;;;;102.40;32.75;;;;;;;;;;5009026;28;89993;-71
2022/01/15 00:32:54;;;;;;;94.60;32.33;;;;;;;;;;5009143;28;89884;-71
2022/01/15 00:35:21;;;;;;;111.90;34.88;;;;;;;;;;5013488;28;89253;-71
2022/01/15 00:37:47;;;;;;;123.05;32.90;;;;;;;;;;5016985;28;88968;-71
2022/01/15 00:40:15;;;;;;;74.03;32.33;;;;;;;;;;5001576;28;89933;-71
2022/01/15 00:42:42;;;;;;;73.57;30.75;;;;;;;;;;5009461;28;89154;-71
2022/01/15 00:45:13;;;;;;;116.45;34.22;;;;;;;;;;5007157;28;89944;-71
2022/01/15 00:47:40;;;;;;;81.53;31.42;;;;;;;;;;5013357;28;89148;-71
2022/01/15 00:50:07;;;;;;;101.38;33.15;;;;;;;;;;5008517;28;89014;-71
2022/01/15 00:52:34;;;;;;;97.38;31.65;;;;;;;;;;5014171;28;91190;-71
2022/01/15 00:55:00;;;;;;;83.15;30.70;;;;;;;;;;5012519;28;89081;-71
2022/01/15 00:57:26;;;;;;;75.45;30.38;;;;;;;;;;5013637;28;89050;-71
2022/01/15 00:59:52;;;;;;;83.95;30.85;;;;;;;;;;5002701;28;89539;-71
2022/01/15 01:02:19;;;;;;;75.32;28.40;;;;;;;;;;5008875;28;89090;-71
2022/01/15 01:04:46;;;;;;;75.95;30.27;;;;;;;;;;5007451;28;90392;-71
2022/01/15 01:07:12;;;;;;;71.10;30.02;;;;;;;;;;5016463;28;89226;-71
2022/01/15 01:22:58;;;;;;;59.08;24.60;;;;;;;;;;5013397;28;89066;-71
2022/01/15 01:25:34;;;;;;;65.30;25.55;;;;;;;;;;5016606;28;88985;-71
2022/01/15 01:28:12;;;;;;;58.65;26.75;;;;;;;;;;5008865;28;88805;-71
2022/01/15 01:30:46;;;;;;;57.35;23.83;;;;;;;;;;5009739;28;89971;-71
2022/01/15 01:35:46;;;;;;;53.53;24.45;;;;;;;;;;5016395;28;89351;-71
2022/01/15 01:38:19;;;;;;;53.30;23.85;;;;;;;;;;5012801;28;89647;-71
2022/01/15 01:40:49;;;;;;;54.65;23.75;;;;;;;;;;5016603;28;90146;-71
2022/01/15 01:45:54;;;;;;;46.42;21.58;;;;;;;;;;5006797;28;89062;-71
2022/01/15 01:48:21;;;;;;;54.83;22.83;;;;;;;;;;5016307;28;89672;-71
2022/01/15 01:50:47;;;;;;;53.15;22.98;;;;;;;;;;5008352;28;94239;-71
2022/01/15 01:53:13;;;;;;;67.00;22.83;;;;;;;;;;5013739;28;91753;-71
2022/01/15 01:55:40;;;;;;;58.92;24.02;;;;;;;;;;5010653;28;92549;-71
2022/01/15 01:58:06;;;;;;;54.75;23.42;;;;;;;;;;5000160;28;93444;-71
2022/01/15 02:00:32;;;;;;;62.25;23.75;;;;;;;;;;5002477;28;95223;-71
2022/01/15 02:03:00;;;;;;;66.72;24.80;;;;;;;;;;5001018;28;95606;-71
2022/01/15 02:05:26;;;;;;;62.33;25.98;;;;;;;;;;5010765;28;92380;-71
2022/01/15 02:07:53;;;;;;;59.78;23.63;;;;;;;;;;4997200;28;92791;-71
2022/01/15 02:10:20;;;;;;;57.15;23.15;;;;;;;;;;5031007;27;93233;-71
2022/01/15 02:12:48;;;;;;;51.22;22.38;;;;;;;;;;5012400;28;92474;-71
2022/01/15 02:15:15;;;;;;;48.58;22.20;;;;;;;;;;5012072;28;92602;-71
2022/01/15 02:17:42;;;;;;;53.20;21.80;;;;;;;;;;5011273;28;92728;-71
2022/01/15 02:25:44;;;;;;;52.00;20.38;;;;;;;;;;4999243;28;95089;-71
2022/01/15 02:28:11;;;;;;;51.22;21.73;;;;;;;;;;5010484;28;92468;-71
2022/01/15 02:30:37;;;;;;;45.92;20.63;;;;;;;;;;5011736;28;92675;-71
2022/01/15 02:33:04;;;;;;;47.75;20.30;;;;;;;;;;5001240;28;92697;-71
2022/01/15 02:35:30;;;;;;;45.53;19.73;;;;;;;;;;5010630;28;92404;-71
2022/01/15 02:38:04;;;;;;;50.03;19.50;;;;;;;;;;4997366;28;93495;-71
2022/01/15 02:40:33;;;;;;;43.75;18.30;;;;;;;;;;5012939;28;93731;-72
2022/01/15 02:43:06;;;;;;;41.78;18.35;;;;;;;;;;5012384;28;94661;-71
2022/01/15 02:45:34;;;;;;;44.20;18.77;;;;;;;;;;5009273;28;92724;-71
2022/01/15 02:48:01;;;;;;;48.08;19.70;;;;;;;;;;5007419;28;92405;-71
2022/01/15 02:50:28;;;;;;;49.00;19.35;;;;;;;;;;5007632;28;94717;-71
2022/01/15 02:52:54;;;;;;;46.90;19.38;;;;;;;;;;5013062;28;92497;-71
2022/01/15 02:55:20;;;;;;;47.83;20.95;;;;;;;;;;5012266;28;92421;-71
2022/01/15 02:57:47;;;;;;;59.58;20.00;;;;;;;;;;5003975;28;93195;-71
2022/01/15 03:00:13;;;;;;;47.05;18.75;;;;;;;;;;5012108;28;92381;-71
2022/01/15 03:02:39;;;;;;;52.40;19.92;;;;;;;;;;5011780;28;92978;-71
2022/01/15 03:05:06;;;;;;;69.25;23.55;;;;;;;;;;5011325;28;93316;-71
2022/01/15 03:07:34;;;;;;;69.00;21.55;;;;;;;;;;5011025;28;91718;-71
2022/01/15 03:10:00;;;;;;;60.60;21.30;;;;;;;;;;5006444;28;92345;-72
2022/01/15 03:12:26;;;;;;;65.57;20.45;;;;;;;;;;5011863;28;92523;-71
2022/01/15 03:14:55;;;;;;;61.80;20.65;;;;;;;;;;5009636;28;95382;-71
2022/01/15 03:17:22;;;;;;;60.47;20.92;;;;;;;;;;5011273;28;94170;-71
2022/01/15 03:19:48;;;;;;;52.15;19.77;;;;;;;;;;5008887;28;92831;-71
2022/01/15 03:22:14;;;;;;;61.28;19.35;;;;;;;;;;5011643;28;94036;-71
2022/01/15 03:24:40;;;;;;;60.65;21.15;;;;;;;;;;5011127;28;92453;-71
2022/01/15 03:27:07;;;;;;;49.60;18.95;;;;;;;;;;5006061;28;93398;-71
2022/01/15 03:29:33;;;;;;;56.80;21.25;;;;;;;;;;5011787;28;92481;-71
2022/01/15 03:32:00;;;;;;;64.43;19.17;;;;;;;;;;5005842;28;92688;-71
2022/01/15 03:34:26;;;;;;;59.03;20.38;;;;;;;;;;5011532;28;92383;-71
2022/01/15 03:36:52;;;;;;;57.85;19.55;;;;;;;;;;4999170;28;92665;-71
2022/01/15 03:39:19;;;;;;;63.72;19.42;;;;;;;;;;5009987;28;94970;-71
2022/01/15 03:41:45;;;;;;;54.40;20.08;;;;;;;;;;5009978;28;96758;-70
2022/01/15 03:44:11;;;;;;;67.55;19.02;;;;;;;;;;5008375;28;94351;-70
2022/01/15 03:46:38;;;;;;;48.13;18.38;;;;;;;;;;5007030;28;92664;-70
2022/01/15 03:49:04;;;;;;;53.88;18.55;;;;;;;;;;5011206;28;93179;-71
2022/01/15 03:51:30;;;;;;;51.90;17.00;;;;;;;;;;5000958;28;92339;-70
2022/01/15 03:53:57;;;;;;;53.35;17.85;;;;;;;;;;4997991;28;92819;-70
2022/01/15 03:56:23;;;;;;;46.88;16.80;;;;;;;;;;5012166;28;92571;-70
2022/01/15 03:58:49;;;;;;;46.90;16.40;;;;;;;;;;5003555;28;92461;-70
2022/01/15 04:01:15;;;;;;;44.17;16.27;;;;;;;;;;5004260;28;92351;-70
2022/01/15 04:03:42;;;;;;;38.63;15.93;;;;;;;;;;5009140;28;95775;-70
2022/01/15 04:06:08;;;;;;;42.78;17.63;;;;;;;;;;4999381;28;92427;-70
2022/01/15 04:08:34;;;;;;;44.45;17.85;;;;;;;;;;4999494;28;93035;-70
2022/01/15 04:11:01;;;;;;;52.63;16.48;;;;;;;;;;5006417;28;93460;-70
2022/01/15 04:13:27;;;;;;;62.13;18.30;;;;;;;;;;4993730;28;92536;-70
2022/01/15 04:15:54;;;;;;;55.88;18.05;;;;;;;;;;4999128;28;92397;-70
2022/01/15 04:18:22;;;;;;;46.90;17.25;;;;;;;;;;5006259;28;92872;-70
2022/01/15 04:20:48;;;;;;;47.08;17.48;;;;;;;;;;5011221;28;93913;-70
2022/01/15 04:23:14;;;;;;;36.70;15.38;;;;;;;;;;5006536;28;93869;-70
2022/01/15 04:25:41;;;;;;;36.40;16.58;;;;;;;;;;5001120;28;92443;-70
2022/01/15 04:28:10;;;;;;;32.78;14.23;;;;;;;;;;5010374;28;94983;-70
2022/01/15 04:30:37;;;;;;;30.05;13.15;;;;;;;;;;5002750;28;93329;-70
2022/01/15 04:33:03;;;;;;;35.30;13.52;;;;;;;;;;4998049;28;92647;-70
2022/01/15 04:35:30;;;;;;;38.42;14.38;;;;;;;;;;5007580;28;92449;-70
2022/01/15 04:38:03;;;;;;;37.17;15.52;;;;;;;;;;5015017;28;94776;-70
2022/01/15 04:40:29;;;;;;;43.38;15.93;;;;;;;;;;5003719;28;92949;-70
2022/01/15 04:42:56;;;;;;;52.35;17.45;;;;;;;;;;5008156;28;92322;-70
2022/01/15 04:45:22;;;;;;;41.92;16.80;;;;;;;;;;5011304;28;91772;-70
2022/01/15 04:47:48;;;;;;;35.80;14.23;;;;;;;;;;5011508;28;92718;-70
2022/01/15 04:50:16;;;;;;;31.95;13.68;;;;;;;;;;5010056;28;93402;-70
2022/01/15 04:52:43;;;;;;;37.85;13.95;;;;;;;;;;5004309;27;95017;-70
2022/01/15 04:55:10;;;;;;;27.00;12.45;;;;;;;;;;4996638;28;94320;-70
2022/01/15 04:57:36;;;;;;;30.38;12.88;;;;;;;;;;5006523;28;92391;-70
2022/01/15 05:00:07;;;;;;;28.10;12.32;;;;;;;;;;5006230;28;92238;-70
2022/01/15 05:02:34;;;;;;;31.05;11.88;;;;;;;;;;5010482;28;93571;-70
2022/01/15 05:05:00;;;;;;;26.00;11.45;;;;;;;;;;5006151;28;92925;-70
2022/01/15 05:07:26;;;;;;;32.38;12.05;;;;;;;;;;4991250;28;94070;-70
2022/01/15 05:09:53;;;;;;;32.88;12.23;;;;;;;;;;5009767;28;91951;-70
2022/01/15 05:13:02;;;;;;;33.25;12.55;;;;;;;;;;5009042;28;92753;-70
2022/01/15 05:15:08;;;;;;;30.15;13.02;;;;;;;;;;4998532;28;92809;-70
2022/01/15 05:17:35;;;;;;;25.85;12.77;;;;;;;;;;5007752;28;96044;-70
2022/01/15 05:20:02;;;;;;;29.15;13.63;;;;;;;;;;5028162;28;92607;-70
2022/01/15 05:22:28;;;;;;;38.47;15.88;;;;;;;;;;5008124;28;92457;-70
2022/01/15 05:24:55;;;;;;;31.20;14.77;;;;;;;;;;5008361;28;92567;-70
2022/01/15 05:27:21;;;;;;;35.72;15.70;;;;;;;;;;5010502;28;92971;-70
2022/01/15 05:29:47;;;;;;;34.90;15.88;;;;;;;;;;5007456;28;93416;-70
2022/01/15 05:32:14;;;;;;;36.53;16.38;;;;;;;;;;4999780;28;92431;-70
2022/01/15 05:34:40;;;;;;;45.95;17.92;;;;;;;;;;5011230;28;92809;-70
2022/01/15 05:37:07;;;;;;;36.85;17.08;;;;;;;;;;5009396;28;92984;-70
2022/01/15 05:39:33;;;;;;;44.58;18.50;;;;;;;;;;5010433;28;92288;-70
2022/01/15 05:41:59;;;;;;;81.57;19.15;;;;;;;;;;5010728;28;95268;-70
2022/01/15 05:44:26;;;;;;;56.17;20.23;;;;;;;;;;4995035;28;92454;-71
2022/01/15 05:46:52;;;;;;;54.40;20.70;;;;;;;;;;5002715;28;92473;-70
2022/01/15 05:49:18;;;;;;;45.72;19.58;;;;;;;;;;4998785;28;93922;-70
2022/01/15 05:51:45;;;;;;;45.20;20.15;;;;;;;;;;5008581;28;92591;-70
2022/01/15 05:54:11;;;;;;;55.70;21.95;;;;;;;;;;5012895;28;92291;-70
2022/01/15 05:56:38;;;;;;;53.97;22.75;;;;;;;;;;4998793;28;93540;-70
2022/01/15 05:59:06;;;;;;;42.92;21.27;;;;;;;;;;5000023;28;92014;-70
2022/01/15 06:01:36;;;;;;;54.22;22.63;;;;;;;;;;5010786;28;92379;-70
2022/01/15 06:04:03;;;;;;;62.78;22.45;;;;;;;;;;4997883;28;93424;-70
2022/01/15 06:06:29;;;;;;;55.63;23.80;;;;;;;;;;5003881;28;95044;-70
2022/01/15 06:08:55;;;;;;;57.70;24.13;;;;;;;;;;5009840;28;93550;-70
2022/01/15 06:11:23;;;;;;;63.90;25.98;;;;;;;;;;5011631;28;92616;-70
2022/01/15 06:13:50;;;;;;;56.85;25.75;;;;;;;;;;5011788;28;92876;-71
2022/01/15 06:16:16;;;;;;;53.13;22.88;;;;;;;;;;5006445;28;92474;-70
2022/01/15 06:18:43;;;;;;;59.50;22.88;;;;;;;;;;4993431;28;93023;-70
2022/01/15 06:21:09;;;;;;;61.17;22.17;;;;;;;;;;5011473;28;93389;-70
2022/01/15 06:23:35;;;;;;;55.33;23.23;;;;;;;;;;5001399;28;92610;-70
2022/01/15 06:26:02;;;;;;;59.20;24.30;;;;;;;;;;5010976;28;92431;-70
2022/01/15 06:28:28;;;;;;;67.57;24.33;;;;;;;;;;5008619;28;92504;-70
2022/01/15 06:30:54;;;;;;;53.17;22.80;;;;;;;;;;4995058;28;95557;-70
2022/01/15 06:33:21;;;;;;;59.30;26.50;;;;;;;;;;5011616;28;94344;-70
2022/01/15 06:35:47;;;;;;;57.20;24.42;;;;;;;;;;4993383;28;93621;-71
2022/01/15 06:38:13;;;;;;;56.28;22.95;;;;;;;;;;5006366;28;92435;-70
2022/01/15 06:40:40;;;;;;;57.00;22.38;;;;;;;;;;5012301;28;93288;-70
2022/01/15 06:43:06;;;;;;;69.07;27.33;;;;;;;;;;5013057;28;93225;-70
2022/01/15 06:45:33;;;;;;;49.00;23.50;;;;;;;;;;5013307;28;92435;-70
2022/01/15 06:47:59;;;;;;;71.18;28.25;;;;;;;;;;5016622;28;93151;-70
2022/01/15 06:50:27;;;;;;;88.82;31.63;;;;;;;;;;5013460;28;92712;-70
2022/01/15 06:52:54;;;;;;;65.53;25.48;;;;;;;;;;5013329;28;92996;-70
2022/01/15 06:55:20;;;;;;;66.22;24.52;;;;;;;;;;5011757;28;95999;-71
2022/01/15 06:57:47;;;;;;;53.70;23.05;;;;;;;;;;5007791;28;93475;-70
2022/01/15 07:00:14;;;;;;;63.47;20.83;;;;;;;;;;4992845;28;92361;-70
2022/01/15 07:02:40;;;;;;;61.65;22.02;;;;;;;;;;4992891;28;92427;-70
2022/01/15 07:05:07;;;;;;;73.40;23.23;;;;;;;;;;4992592;28;92300;-70
2022/01/15 07:07:35;;;;;;;112.57;22.50;;;;;;;;;;4996407;28;94335;-70
2022/01/15 07:10:01;;;;;;;125.03;23.42;;;;;;;;;;4992585;28;92838;-70
2022/01/15 07:12:27;;;;;;;64.65;24.58;;;;;;;;;;4993446;28;91638;-70
2022/01/15 07:14:53;;;;;;;59.72;27.13;;;;;;;;;;4992376;28;92433;-70
2022/01/15 07:17:20;;;;;;;92.55;26.17;;;;;;;;;;4993429;28;92556;-70
2022/01/15 07:19:51;;;;;;;161.57;24.70;;;;;;;;;;4991035;28;95294;-70
2022/01/15 07:22:17;;;;;;;;;;;;;;;;;;5009727;28;93452;-70
2022/01/15 07:24:43;;;;;;;63.35;22.17;;;;;;;;;;5013491;28;119483;-70
2022/01/15 07:27:09;;;;;;;123.30;21.67;;;;;;;;;;5012689;28;94270;-70
2022/01/15 07:29:38;;;;;;;107.80;23.63;;;;;;;;;;5015228;28;93251;-70
2022/01/15 07:32:04;;;;;;;86.28;21.58;;;;;;;;;;5012470;28;93145;-70
2022/01/15 07:34:31;;;;;;;116.28;23.05;;;;;;;;;;5012476;28;92369;-69
2022/01/15 07:36:57;;;;;;;100.22;24.27;;;;;;;;;;5012935;28;92418;-70
2022/01/15 07:39:24;;;;;;;144.88;24.55;;;;;;;;;;5012301;28;92356;-70
2022/01/15 07:41:50;;;;;;;140.38;24.05;;;;;;;;;;5012486;28;93661;-70
2022/01/15 07:44:17;;;;;;;80.43;22.75;;;;;;;;;;5009026;28;95039;-70
2022/01/15 07:46:43;;;;;;;66.35;23.00;;;;;;;;;;4996985;28;94085;-70
2022/01/15 07:49:09;;;;;;;74.72;21.98;;;;;;;;;;5010402;28;93188;-70
2022/01/15 07:51:36;;;;;;;68.30;22.17;;;;;;;;;;5014276;28;92459;-69
2022/01/15 07:54:02;;;;;;;115.65;23.75;;;;;;;;;;5007316;28;92463;-70
2022/01/15 07:56:28;;;;;;;78.70;21.35;;;;;;;;;;5009534;28;92462;-70
2022/01/15 07:58:55;;;;;;;129.50;22.13;;;;;;;;;;5007047;28;92430;-69
2022/01/15 08:01:21;;;;;;;127.22;21.92;;;;;;;;;;5012550;28;91827;-70
2022/01/15 08:03:48;;;;;;;156.85;23.58;;;;;;;;;;5012638;28;92381;-70
2022/01/15 08:06:15;;;;;;;145.80;24.52;;;;;;;;;;5011832;28;97334;-70
2022/01/15 08:08:42;;;;;;;80.40;22.00;;;;;;;;;;5008239;28;96742;-70
2022/01/15 08:11:08;;;;;;;192.60;26.05;;;;;;;;;;5011789;28;92377;-69
2022/01/15 08:13:34;;;;;;;79.65;24.33;;;;;;;;;;5014668;28;93019;-70
2022/01/15 08:16:04;;;;;;;90.45;24.23;;;;;;;;;;5018535;28;92724;-69
2022/01/15 08:18:32;;;;;;;131.02;25.17;;;;;;;;;;5013589;27;93054;-70
2022/01/15 08:20:58;;;;;;;64.00;24.40;;;;;;;;;;5011659;28;93533;-70
2022/01/15 08:23:24;;;;;;;186.02;27.40;;;;;;;;;;5003011;28;92951;-70
2022/01/15 08:25:50;;;;;;;164.32;27.80;;;;;;;;;;5009140;28;92081;-70
2022/01/15 08:28:17;;;;;;;115.88;26.67;;;;;;;;;;5009482;28;93570;-70
2022/01/15 08:30:44;;;;;;;84.10;26.33;;;;;;;;;;5008880;28;93382;-70
2022/01/15 08:33:10;;;;;;;120.57;28.13;;;;;;;;;;5009031;28;94970;-70
2022/01/15 08:35:37;;;;;;;73.70;27.63;;;;;;;;;;5013033;28;92886;-73
2022/01/15 08:38:04;;;;;;;246.95;30.30;;;;;;;;;;5009173;28;94441;-71
2022/01/15 08:40:32;;;;;;;224.48;34.40;;;;;;;;;;5009412;28;93324;-71
2022/01/15 08:42:59;;;;;;;193.07;28.58;;;;;;;;;;5009890;28;92683;-71
2022/01/15 08:45:26;;;;;;;205.63;31.58;;;;;;;;;;5005521;28;92432;-71
2022/01/15 08:47:55;;;;;;;99.43;29.88;;;;;;;;;;5010987;28;93456;-70
2022/01/15 08:50:22;;;;;;;133.20;30.33;;;;;;;;;;5012736;28;91620;-70
2022/01/15 08:52:49;;;;;;;132.23;31.13;;;;;;;;;;5009676;28;93263;-71
2022/01/15 08:55:16;;;;;;;216.70;33.47;;;;;;;;;;5003414;28;92493;-71
2022/01/15 08:57:43;;;;;;;214.52;32.30;;;;;;;;;;5012484;28;95062;-71
2022/01/15 09:00:10;;;;;;;123.68;30.70;;;;;;;;;;5010888;28;93485;-71
2022/01/15 09:02:37;;;;;;;159.88;32.30;;;;;;;;;;5010875;28;92559;-71
2022/01/15 09:05:04;;;;;;;128.93;27.13;;;;;;;;;;5010414;28;93240;-73
2022/01/15 09:07:33;;;;;;;127.15;29.50;;;;;;;;;;5008909;28;93454;-71
2022/01/15 09:09:59;;;;;;;149.60;31.13;;;;;;;;;;5010366;28;92418;-71
2022/01/15 09:12:26;;;;;;;138.15;31.13;;;;;;;;;;5010044;28;94317;-72
2022/01/15 09:14:54;;;;;;;150.95;32.28;;;;;;;;;;5005814;28;92712;-72
2022/01/15 09:17:21;;;;;;;146.57;31.15;;;;;;;;;;5006119;28;93231;-72
2022/01/15 09:19:47;;;;;;;135.27;28.83;;;;;;;;;;5010209;28;93466;-71
2022/01/15 09:22:13;;;;;;;144.95;30.33;;;;;;;;;;5008236;28;94825;-71
2022/01/15 09:24:40;;;;;;;112.30;30.08;;;;;;;;;;5010160;28;93986;-71
2022/01/15 09:32:36;;;;;;;128.13;33.63;;;;;;;;;;5013235;28;92495;-71
2022/01/15 09:35:03;;;;;;;119.00;35.33;;;;;;;;;;5014105;28;92368;-71
2022/01/15 09:37:29;;;;;;;123.43;36.70;;;;;;;;;;5014240;28;92938;-72
2022/01/15 09:39:57;;;;;;;140.13;32.55;;;;;;;;;;5017392;28;93302;-71
2022/01/15 09:42:24;;;;;;;209.23;32.10;;;;;;;;;;5012023;28;92450;-71
2022/01/15 09:44:51;;;;;;;151.75;28.80;;;;;;;;;;5011150;28;92522;-71
2022/01/15 09:47:20;;;;;;;240.27;34.53;;;;;;;;;;5010619;28;95251;-71
2022/01/15 09:49:47;;;;;;;129.95;31.63;;;;;;;;;;5013602;28;92801;-71
2022/01/15 09:52:14;;;;;;;145.77;32.03;;;;;;;;;;5014104;28;93281;-72
2022/01/15 09:54:40;;;;;;;121.28;30.35;;;;;;;;;;4994417;28;92423;-71
2022/01/15 09:57:07;;;;;;;156.48;28.73;;;;;;;;;;5004769;28;93010;-70
2022/01/15 09:59:33;;;;;;;127.45;30.83;;;;;;;;;;5013840;28;93039;-72
2022/01/15 10:02:03;;;;;;;151.18;30.27;;;;;;;;;;5015684;28;92303;-72
2022/01/15 10:04:32;;;;;;;145.23;29.10;;;;;;;;;;5011150;28;93142;-70
2022/01/15 10:07:05;;;;;;;105.32;28.25;;;;;;;;;;5006216;28;93516;-72
2022/01/15 10:09:31;;;;;;;91.85;27.48;;;;;;;;;;4998880;28;92613;-72
2022/01/15 10:11:57;;;;;;;88.72;27.90;;;;;;;;;;4999589;28;94752;-72
2022/01/15 10:14:24;;;;;;;129.93;29.60;;;;;;;;;;5012337;28;92313;-71
2022/01/15 10:16:50;;;;;;;126.28;29.33;;;;;;;;;;5012197;28;92668;-70
2022/01/15 10:19:23;;;;;;;121.03;28.13;;;;;;;;;;5012985;28;92527;-73
2022/01/15 10:22:03;;;;;;;120.95;28.10;;;;;;;;;;5011259;28;93308;-71
2022/01/15 10:24:30;;;;;;;105.70;30.60;;;;;;;;;;5006723;28;92540;-71
2022/01/15 10:26:56;;;;;;;221.20;30.92;;;;;;;;;;4993258;28;92460;-71
2022/01/15 10:29:22;;;;;;;144.27;29.67;;;;;;;;;;4994198;28;92053;-71
2022/01/15 10:31:48;;;;;;;124.45;29.48;;;;;;;;;;4993398;28;92349;-71
2022/01/15 10:34:41;;;;;;;121.88;32.35;;;;;;;;;;4993242;28;94321;-71
2022/01/15 10:37:37;;;;;;;106.72;32.15;;;;;;;;;;4990455;28;94928;-71
2022/01/15 10:40:08;;;;;;;91.95;31.38;;;;;;;;;;4992297;28;96040;-72
2022/01/15 10:42:35;;;;;;;78.88;25.60;;;;;;;;;;5010169;28;92682;-72
2022/01/15 10:45:07;;;;;;;97.60;25.33;;;;;;;;;;4993687;28;92374;-71
2022/01/15 10:47:38;;;;;;;115.03;26.02;;;;;;;;;;5020679;28;93463;-72
2022/01/15 10:50:05;;;;;;;74.78;23.38;;;;;;;;;;5013321;28;92392;-72
2022/01/15 10:52:31;;;;;;;92.45;25.52;;;;;;;;;;5013582;28;93203;-71
2022/01/15 10:55:11;;;;;;;76.35;24.38;;;;;;;;;;5009146;28;92625;-72
2022/01/15 10:57:39;;;;;;;85.80;24.27;;;;;;;;;;5010229;28;95779;-72
2022/01/15 11:00:08;;;;;;;75.15;25.25;;;;;;;;;;5011957;28;93034;-72
2022/01/15 11:02:35;;;;;;;96.35;23.75;;;;;;;;;;5004815;28;96178;-71
2022/01/15 11:05:02;;;;;;;85.88;25.40;;;;;;;;;;5010845;28;92414;-73
2022/01/15 11:07:34;;;;;;;172.70;24.58;;;;;;;;;;5010951;28;92402;-72
2022/01/15 11:10:02;;;;;;;110.00;27.13;;;;;;;;;;5015372;28;92404;-72
2022/01/15 11:12:28;;;;;;;129.80;28.58;;;;;;;;;;5007121;28;93206;-72
2022/01/15 11:14:54;;;;;;;94.78;30.33;;;;;;;;;;5010681;28;93445;-73
2022/01/15 11:17:21;;;;;;;111.75;33.25;;;;;;;;;;5012633;28;92497;-73
2022/01/15 11:19:50;;;;;;;144.23;30.25;;;;;;;;;;5012430;28;93321;-72
2022/01/15 11:22:19;;;;;;;111.25;29.25;;;;;;;;;;5012780;28;92497;-73
2022/01/15 11:24:45;;;;;;;86.20;30.13;;;;;;;;;;5012573;28;92500;-73
2022/01/15 11:27:11;;;;;;;128.18;28.88;;;;;;;;;;5011002;28;94751;-72
2022/01/15 11:29:41;;;;;;;94.15;28.85;;;;;;;;;;5011180;28;92524;-72
2022/01/15 11:32:10;;;;;;;119.53;32.47;;;;;;;;;;4998470;28;92455;-72
2022/01/15 11:34:38;;;;;;;207.40;34.83;;;;;;;;;;5012363;28;93283;-72
2022/01/15 11:37:20;;;;;;;116.80;32.88;;;;;;;;;;5012887;28;92361;-73
2022/01/15 11:39:52;;;;;;;104.03;33.03;;;;;;;;;;5012657;28;93386;-73
2022/01/15 11:42:25;;;;;;;110.75;34.08;;;;;;;;;;5010024;28;92947;-72
2022/01/15 11:44:52;;;;;;;124.75;31.10;;;;;;;;;;5012138;28;91723;-72
2022/01/15 11:47:25;;;;;;;110.65;32.00;;;;;;;;;;5011654;28;92386;-71
2022/01/15 11:49:53;;;;;;;101.60;30.70;;;;;;;;;;5011077;28;93989;-71
2022/01/15 11:52:22;;;;;;;130.82;31.50;;;;;;;;;;5013632;28;95348;-71
2022/01/15 11:54:49;;;;;;;100.50;32.83;;;;;;;;;;5010850;28;94249;-73
2022/01/15 11:57:26;;;;;;;114.43;33.83;;;;;;;;;;5010348;28;93515;-72
2022/01/15 11:59:53;;;;;;;104.95;32.15;;;;;;;;;;5012622;28;94325;-71
2022/01/15 12:02:35;;;;;;;92.38;32.88;;;;;;;;;;5011006;28;92540;-71
2022/01/15 12:05:17;;;;;;;113.50;33.70;;;;;;;;;;5012135;28;92356;-71
2022/01/15 12:07:44;;;;;;;126.30;35.72;;;;;;;;;;5011430;28;93792;-71
2022/01/15 12:10:11;;;;;;;148.32;36.75;;;;;;;;;;5012183;28;92400;-72
2022/01/15 12:12:42;;;;;;;117.32;34.15;;;;;;;;;;5010476;28;92489;-72
2022/01/15 12:15:10;;;;;;;97.05;33.05;;;;;;;;;;5013969;28;92436;-71
2022/01/15 12:17:38;;;;;;;131.15;35.35;;;;;;;;;;5009579;28;94780;-72
2022/01/15 12:20:06;;;;;;;93.43;30.73;;;;;;;;;;5011712;28;94529;-71
2022/01/15 12:22:35;;;;;;;130.65;31.48;;;;;;;;;;5010670;28;92475;-71
2022/01/15 12:25:05;;;;;;;128.52;31.95;;;;;;;;;;5002292;28;92497;-70
2022/01/15 12:27:32;;;;;;;151.57;33.42;;;;;;;;;;4997326;28;93292;-70
2022/01/15 12:30:00;;;;;;;104.55;30.90;;;;;;;;;;5004426;28;92546;-71
2022/01/15 12:32:28;;;;;;;91.63;31.23;;;;;;;;;;5026633;28;92591;-70
2022/01/15 12:34:55;;;;;;;79.85;31.38;;;;;;;;;;5012142;28;94155;-71
2022/01/15 12:37:21;;;;;;;108.40;30.05;;;;;;;;;;5014205;28;94551;-72
2022/01/15 12:39:48;;;;;;;82.05;29.98;;;;;;;;;;5011992;28;93146;-71
2022/01/15 12:42:17;;;;;;;109.05;29.65;;;;;;;;;;5009576;28;94988;-71
2022/01/15 12:44:45;;;;;;;80.15;29.02;;;;;;;;;;5010963;28;93458;-71
2022/01/15 12:47:12;;;;;;;109.32;30.25;;;;;;;;;;5011690;28;94613;-71
2022/01/15 12:49:39;;;;;;;109.30;33.38;;;;;;;;;;5010066;28;92295;-71
2022/01/15 12:52:12;;;;;;;155.50;38.80;;;;;;;;;;5011949;28;92376;-71
2022/01/15 12:54:38;;;;;;;168.18;35.55;;;;;;;;;;5010259;28;93361;-71
2022/01/15 12:57:05;;;;;;;100.05;32.38;;;;;;;;;;5006595;28;93589;-71
2022/01/15 12:59:33;;;;;;;136.35;33.55;;;;;;;;;;5000633;28;91742;-71
2022/01/15 13:02:01;;;;;;;108.82;30.88;;;;;;;;;;5012133;28;92450;-71
2022/01/15 13:04:27;;;;;;;127.05;30.30;;;;;;;;;;5014838;28;92442;-71
2022/01/15 13:06:57;;;;;;;81.30;31.15;;;;;;;;;;5013089;28;94779;-71
2022/01/15 13:09:37;;;;;;;156.53;30.00;;;;;;;;;;5014163;28;93305;-71
2022/01/15 13:12:03;;;;;;;77.38;30.75;;;;;;;;;;5014717;28;92918;-71
2022/01/15 13:14:40;;;;;;;106.13;34.40;;;;;;;;;;5013996;28;93016;-71
2022/01/15 13:17:19;;;;;;;72.45;29.98;;;;;;;;;;5014073;28;92903;-71
2022/01/15 13:19:45;;;;;;;82.28;33.17;;;;;;;;;;5013141;28;92557;-71
2022/01/15 13:22:12;;;;;;;70.30;29.25;;;;;;;;;;5017377;28;92381;-71
2022/01/15 13:24:38;;;;;;;54.10;25.85;;;;;;;;;;5015084;28;92122;-71
2022/01/15 13:27:05;;;;;;;54.70;26.73;;;;;;;;;;5013820;28;92344;-71
2022/01/15 13:29:39;;;;;;;51.17;25.25;;;;;;;;;;5013968;28;92464;-71
2022/01/15 13:32:07;;;;;;;53.72;25.77;;;;;;;;;;5012019;28;95418;-71
2022/01/15 13:34:36;;;;;;;59.00;28.35;;;;;;;;;;5013778;28;96671;-71
2022/01/15 13:37:06;;;;;;;63.47;33.60;;;;;;;;;;5014317;28;93617;-71
2022/01/15 13:39:33;;;;;;;53.28;28.00;;;;;;;;;;5014386;28;92476;-71
2022/01/15 13:41:59;;;;;;;47.67;25.77;;;;;;;;;;5014767;28;92498;-71
2022/01/15 13:44:30;;;;;;;53.45;25.98;;;;;;;;;;5010604;28;92576;-71
2022/01/15 13:47:04;;;;;;;44.47;24.40;;;;;;;;;;5007790;28;93225;-71
2022/01/15 13:49:36;;;;;;;44.65;23.52;;;;;;;;;;5005533;28;91724;-71
2022/01/15 13:54:57;;;;;;;46.53;23.48;;;;;;;;;;5010848;28;93426;-70
2022/01/15 13:57:27;;;;;;;42.60;23.38;;;;;;;;;;5010799;28;96116;-71
2022/01/15 13:59:57;;;;;;;41.65;23.10;;;;;;;;;;5010807;28;92513;-72
2022/01/15 14:02:27;;;;;;;35.20;20.00;;;;;;;;;;5014179;28;94203;-71
2022/01/15 14:05:07;;;;;;;35.10;18.15;;;;;;;;;;5016641;28;93577;-71
2022/01/15 14:07:35;;;;;;;38.37;19.47;;;;;;;;;;5028918;27;93050;-71
2022/01/15 14:10:06;;;;;;;39.35;22.27;;;;;;;;;;5013090;28;92457;-71
2022/01/15 14:12:32;;;;;;;41.35;21.20;;;;;;;;;;4999712;28;92491;-71
2022/01/15 14:15:03;;;;;;;48.38;22.25;;;;;;;;;;5012814;28;91715;-71
2022/01/15 14:17:34;;;;;;;43.00;21.88;;;;;;;;;;5012540;28;93518;-70
2022/01/15 14:20:16;;;;;;;44.17;23.52;;;;;;;;;;5013769;28;92718;-70
2022/01/15 14:22:44;;;;;;;45.25;23.13;;;;;;;;;;5012574;27;94801;-69
2022/01/15 14:25:13;;;;;;;40.05;21.35;;;;;;;;;;5012815;28;93435;-70
2022/01/15 14:27:39;;;;;;;45.95;22.13;;;;;;;;;;5014543;28;92625;-70
2022/01/15 14:30:06;;;;;;;47.03;22.52;;;;;;;;;;5008347;28;92872;-71
2022/01/15 14:32:32;;;;;;;47.03;23.23;;;;;;;;;;5011372;28;92570;-71
2022/01/15 14:34:59;;;;;;;44.47;22.15;;;;;;;;;;5012750;28;94327;-70
2022/01/15 14:37:26;;;;;;;44.80;23.35;;;;;;;;;;5010047;28;93873;-71
2022/01/15 14:39:55;;;;;;;44.42;23.25;;;;;;;;;;5004790;28;91615;-71
2022/01/15 14:42:23;;;;;;;45.72;23.75;;;;;;;;;;5006382;28;92291;-70
2022/01/15 14:44:50;;;;;;;44.13;22.08;;;;;;;;;;5011877;28;93457;-69
2022/01/15 14:47:16;;;;;;;48.78;25.00;;;;;;;;;;5008193;28;95249;-71
2022/01/15 14:49:43;;;;;;;47.72;23.05;;;;;;;;;;5013957;28;93930;-71